Time;durP1;ratioP1;P1;durP2;ratioP2;P2;SDS_P1;SDS_P2;PMS_P1;PMS_P2;Temp;Humidity;BMP_temperature;BMP_pressure;BME280_temperature;BME280_humidity;BME280_pressure;Samples;Min_cycle;Max_cycle;Signal;HPM_P1;HPM_P2
2023/12/31 00:00:40;;;;;;;3.10;2.80;;;;;;;20.21;51.71;97168.78;5010538;28;20213;-26
2023/12/31 00:03:07;;;;;;;2.93;2.73;;;;;;;20.21;51.97;97166.25;5013535;28;20285;-26
2023/12/31 00:05:35;;;;;;;3.00;2.80;;;;;;;20.21;51.81;97159.47;5011583;28;20202;-28
2023/12/31 00:08:02;;;;;;;3.30;2.93;;;;;;;20.20;51.96;97152.66;5013147;28;20232;-29
2023/12/31 00:10:28;;;;;;;2.77;2.57;;;;;;;20.21;51.87;97154.38;5013597;28;20203;-27
2023/12/31 00:12:55;;;;;;;3.10;2.90;;;;;;;20.23;51.35;97151.84;5013973;28;20203;-26
2023/12/31 00:15:22;;;;;;;3.30;3.00;;;;;;;20.23;51.70;97147.63;5010041;28;20219;-26
2023/12/31 00:17:48;;;;;;;2.97;2.70;;;;;;;20.26;51.86;97144.28;5006113;28;20214;-32
2023/12/31 00:20:15;;;;;;;3.10;2.80;;;;;;;20.27;51.70;97138.34;5012949;28;20219;-28
2023/12/31 00:22:41;;;;;;;3.23;2.93;;;;;;;20.25;51.81;97129.81;5013819;28;20209;-29
2023/12/31 00:25:08;;;;;;;3.93;3.53;;;;;;;20.26;51.78;97134.97;5008921;28;20262;-26
2023/12/31 00:27:35;;;;;;;3.07;2.87;;;;;;;20.24;51.85;97116.19;5013830;28;20265;-27
2023/12/31 00:30:02;;;;;;;3.03;2.80;;;;;;;20.23;51.79;97117.00;5011547;28;20316;-38
2023/12/31 00:32:29;;;;;;;3.30;3.00;;;;;;;20.24;51.79;97117.84;5006161;28;20198;-26
2023/12/31 00:34:55;;;;;;;3.40;3.10;;;;;;;20.22;51.97;97128.00;5013544;28;20225;-28
2023/12/31 00:37:22;;;;;;;3.40;3.10;;;;;;;20.22;51.86;97129.72;5013189;28;20256;-26
2023/12/31 00:39:49;;;;;;;2.90;2.70;;;;;;;20.22;51.72;97133.13;5013349;28;20301;-26
2023/12/31 00:42:15;;;;;;;3.10;2.90;;;;;;;20.21;51.90;97121.19;5012998;28;20234;-30
2023/12/31 00:44:42;;;;;;;3.90;3.57;;;;;;;20.21;51.86;97121.19;5010147;28;20206;-29
2023/12/31 00:47:08;;;;;;;3.40;3.07;;;;;;;20.20;51.86;97114.38;5010296;28;20618;-26
2023/12/31 00:49:35;;;;;;;3.17;2.90;;;;;;;20.22;51.90;97114.41;5013719;28;20586;-26
2023/12/31 00:52:02;;;;;;;3.13;2.83;;;;;;;20.21;51.73;97108.44;5013240;28;20209;-28
2023/12/31 00:54:28;;;;;;;3.10;2.80;;;;;;;20.23;52.13;97111.03;5013303;28;20222;-29
2023/12/31 00:56:55;;;;;;;2.90;2.70;;;;;;;20.24;51.76;97111.06;5013160;28;20248;-26
2023/12/31 00:59:21;;;;;;;3.10;2.80;;;;;;;20.26;51.65;97098.34;5012561;28;20233;-26
2023/12/31 01:01:50;;;;;;;3.00;2.80;;;;;;;20.26;51.83;97096.69;5011014;28;20194;-29
2023/12/31 01:04:17;;;;;;;3.27;3.03;;;;;;;20.27;51.77;97089.88;5007593;28;20203;-28
2023/12/31 01:06:43;;;;;;;3.33;3.00;;;;;;;20.25;51.78;97082.19;5012410;28;20198;-27
2023/12/31 01:09:10;;;;;;;3.40;3.10;;;;;;;20.24;51.91;97075.34;5011864;28;20222;-26
2023/12/31 01:11:37;;;;;;;3.43;3.13;;;;;;;20.24;51.77;97080.47;5013079;28;20198;-27
2023/12/31 01:14:04;;;;;;;3.20;2.90;;;;;;;20.24;51.68;97077.03;5009892;28;20218;-26
2023/12/31 01:16:30;;;;;;;2.97;2.77;;;;;;;20.23;51.95;97082.97;5012711;28;20214;-26
2023/12/31 01:18:57;;;;;;;2.97;2.77;;;;;;;20.23;51.71;97082.97;5009642;28;20716;-29
2023/12/31 01:21:24;;;;;;;3.33;3.07;;;;;;;20.21;51.74;97077.81;5012562;28;20202;-26
2023/12/31 01:23:50;;;;;;;3.13;2.83;;;;;;;20.21;51.95;97070.16;5011759;28;20195;-26
2023/12/31 01:26:17;;;;;;;3.60;3.30;;;;;;;20.22;51.75;97068.50;5012494;28;20233;-26
2023/12/31 01:28:43;;;;;;;3.13;2.83;;;;;;;20.23;51.87;97060.00;5012291;28;20229;-28
2023/12/31 01:31:17;;;;;;;3.47;3.17;;;;;;;20.22;51.79;97061.69;5012093;28;20249;-26
2023/12/31 01:33:44;;;;;;;3.40;3.10;;;;;;;20.23;51.71;97052.34;5012180;28;20198;-26
2023/12/31 01:36:15;;;;;;;3.23;2.93;;;;;;;20.24;51.88;97051.50;5012122;28;20801;-26
2023/12/31 01:38:42;;;;;;;2.90;2.70;;;;;;;20.25;51.61;97046.44;5010554;28;20232;-28
2023/12/31 01:41:09;;;;;;;3.30;3.00;;;;;;;20.26;51.78;97037.13;5011862;28;20199;-26
2023/12/31 01:43:36;;;;;;;3.53;3.23;;;;;;;20.26;51.62;97032.91;5007522;28;20293;-29
2023/12/31 01:46:06;;;;;;;2.83;2.63;;;;;;;20.27;51.66;97026.06;5011944;28;20198;-27
2023/12/31 01:48:33;;;;;;;3.37;3.07;;;;;;;20.21;51.65;97019.13;5012362;28;20221;-28
2023/12/31 01:51:01;;;;;;;3.13;2.83;;;;;;;20.24;51.94;97023.44;4996395;28;20245;-26
2023/12/31 01:53:27;;;;;;;3.17;2.97;;;;;;;20.17;51.73;97025.00;5017740;28;20227;-26
2023/12/31 01:55:54;;;;;;;3.20;2.90;;;;;;;20.22;52.03;97031.06;5007796;28;20246;-26
2023/12/31 01:58:21;;;;;;;3.27;2.97;;;;;;;20.23;51.86;97024.28;5011135;28;20218;-27
2023/12/31 02:00:48;;;;;;;3.20;2.90;;;;;;;20.19;51.77;97022.47;5011356;28;20202;-27
2023/12/31 02:03:15;;;;;;;3.43;3.13;;;;;;;20.20;51.91;97019.09;4995661;28;20215;-26
2023/12/31 02:05:41;;;;;;;3.33;3.03;;;;;;;20.20;51.71;97025.06;5011244;28;20198;-27
2023/12/31 02:08:08;;;;;;;3.07;2.87;;;;;;;20.19;51.89;97015.69;4994795;28;20289;-27
2023/12/31 02:10:35;;;;;;;2.93;2.73;;;;;;;20.21;51.50;97021.69;5011051;28;20638;-26
2023/12/31 02:13:01;;;;;;;2.90;2.70;;;;;;;20.21;51.91;97021.69;5011266;28;20238;-29
2023/12/31 02:15:30;;;;;;;3.20;2.93;;;;;;;20.22;51.48;97005.53;4995891;28;20272;-31
2023/12/31 02:17:56;;;;;;;3.17;2.87;;;;;;;20.25;51.71;97009.88;5016070;28;20640;-26
2023/12/31 02:20:23;;;;;;;3.03;2.83;;;;;;;20.26;51.75;97009.06;5015626;28;20222;-26
2023/12/31 02:22:50;;;;;;;3.60;3.30;;;;;;;20.23;51.45;97004.75;5010997;28;20248;-27
2023/12/31 02:25:18;;;;;;;3.60;3.30;;;;;;;20.26;51.49;96998.84;5012768;28;20198;-27
2023/12/31 02:27:45;;;;;;;3.50;3.20;;;;;;;20.26;51.69;97003.94;5011445;28;20195;-26
2023/12/31 02:30:11;;;;;;;3.20;2.80;;;;;;;20.24;51.71;97000.47;5015538;28;20233;-26
2023/12/31 02:32:38;;;;;;;2.87;2.67;;;;;;;20.23;51.50;96999.66;5012231;28;20206;-27
2023/12/31 02:35:05;;;;;;;3.20;3.00;;;;;;;20.23;51.54;96991.13;5016451;28;20218;-26
2023/12/31 02:37:32;;;;;;;3.30;3.03;;;;;;;20.22;51.67;96995.34;5015265;28;20229;-26
2023/12/31 02:39:58;;;;;;;3.37;3.07;;;;;;;20.22;51.54;96991.94;5005022;28;20226;-27
2023/12/31 02:42:25;;;;;;;3.40;3.10;;;;;;;20.22;51.98;96986.84;5013548;28;20241;-26
2023/12/31 02:44:52;;;;;;;3.30;3.00;;;;;;;20.20;51.72;96989.34;5011395;28;20590;-26
2023/12/31 02:47:18;;;;;;;2.97;2.77;;;;;;;20.21;51.70;96983.41;5010953;28;20622;-26
2023/12/31 02:49:45;;;;;;;3.53;3.20;;;;;;;20.21;51.53;96983.41;5009652;28;20305;-30
2023/12/31 02:52:11;;;;;;;3.27;2.97;;;;;;;20.22;51.63;96974.09;5011446;28;20206;-26
2023/12/31 02:54:38;;;;;;;3.40;3.10;;;;;;;20.23;51.48;96973.25;5015129;28;20727;-26
2023/12/31 02:57:08;;;;;;;3.30;3.00;;;;;;;20.24;51.83;96973.28;5015525;28;20226;-27
2023/12/31 02:59:35;;;;;;;3.00;2.70;;;;;;;20.25;51.72;96964.81;5015317;28;20240;-26
2023/12/31 03:02:02;;;;;;;3.13;2.93;;;;;;;20.26;51.36;96956.34;5010179;28;20222;-26
2023/12/31 03:04:28;;;;;;;3.40;3.10;;;;;;;20.26;51.39;96956.34;5013010;28;20230;-26
2023/12/31 03:06:55;;;;;;;3.40;3.10;;;;;;;20.23;51.55;96955.41;5007650;28;20784;-26
2023/12/31 03:09:21;;;;;;;3.30;3.00;;;;;;;20.25;51.54;96958.84;5011556;28;20230;-29
2023/12/31 03:11:49;;;;;;;3.90;3.50;;;;;;;20.23;51.64;96950.28;5015278;28;20206;-26
2023/12/31 03:14:16;;;;;;;3.20;3.00;;;;;;;20.22;51.37;96946.03;5015309;28;20297;-30
2023/12/31 03:16:45;;;;;;;3.07;2.87;;;;;;;20.22;51.54;96944.31;5014622;28;20198;-26
2023/12/31 03:19:15;;;;;;;3.17;2.97;;;;;;;20.22;51.60;96946.03;5010477;28;20229;-28
2023/12/31 03:21:42;;;;;;;3.03;2.73;;;;;;;20.20;51.69;96945.97;5014752;28;20745;-29
2023/12/31 03:24:09;;;;;;;3.47;3.17;;;;;;;20.21;51.69;96940.03;5014612;28;20732;-26
2023/12/31 03:26:35;;;;;;;3.30;3.00;;;;;;;20.21;51.58;96950.25;5014543;28;20652;-28
2023/12/31 03:29:02;;;;;;;3.13;2.83;;;;;;;20.21;51.61;96949.38;5013780;28;20233;-28
2023/12/31 03:31:29;;;;;;;3.07;2.87;;;;;;;20.20;51.37;96943.44;5013874;28;20202;-28
2023/12/31 03:33:55;;;;;;;2.90;2.70;;;;;;;20.20;51.47;96934.91;5015164;28;20230;-26
2023/12/31 03:36:24;;;;;;;3.13;2.93;;;;;;;20.22;51.42;96941.75;5014506;28;20622;-26
2023/12/31 03:38:51;;;;;;;3.40;3.10;;;;;;;20.24;51.28;96940.13;5007382;28;20233;-26
2023/12/31 03:41:17;;;;;;;3.07;2.77;;;;;;;20.24;51.36;96932.47;5014214;28;20256;-26
2023/12/31 03:43:44;;;;;;;3.03;2.80;;;;;;;20.26;51.53;96937.59;5010695;28;20389;-28
2023/12/31 03:46:10;;;;;;;3.10;2.90;;;;;;;20.26;51.46;96935.06;5013885;28;20230;-26
2023/12/31 03:48:37;;;;;;;3.23;2.93;;;;;;;20.24;51.58;96935.03;5014023;28;20276;-27
2023/12/31 03:51:04;;;;;;;2.90;2.70;;;;;;;20.25;51.62;96929.09;5013841;28;20653;-26
2023/12/31 03:53:31;;;;;;;2.87;2.67;;;;;;;20.23;51.38;96924.78;5013400;28;20230;-26
2023/12/31 03:55:57;;;;;;;3.30;2.97;;;;;;;20.22;51.41;96923.91;5007137;28;20760;-31
2023/12/31 03:58:24;;;;;;;3.03;2.80;;;;;;;20.22;51.69;96918.81;5013979;28;20218;-27
2023/12/31 04:00:50;;;;;;;3.30;3.00;;;;;;;20.21;51.53;96917.09;5011772;28;20221;-30
2023/12/31 04:03:17;;;;;;;2.70;2.50;;;;;;;20.21;51.37;96911.09;5012410;28;20665;-27
2023/12/31 04:05:44;;;;;;;3.27;2.97;;;;;;;20.22;51.57;96910.31;5013363;28;20203;-31
2023/12/31 04:08:10;;;;;;;3.30;3.00;;;;;;;20.21;51.54;96904.34;5013570;28;20282;-28
2023/12/31 04:10:37;;;;;;;2.93;2.67;;;;;;;20.21;51.58;96896.69;5013430;28;20206;-27
2023/12/31 04:13:03;;;;;;;3.10;2.90;;;;;;;20.21;51.41;96895.81;5012412;28;20205;-26
2023/12/31 04:15:30;;;;;;;3.00;2.80;;;;;;;20.22;51.33;96893.28;5013960;28;20696;-26
2023/12/31 04:17:57;;;;;;;2.97;2.77;;;;;;;20.24;51.36;96883.13;5013129;28;20260;-27
2023/12/31 04:20:24;;;;;;;2.90;2.70;;;;;;;20.23;51.34;96874.63;5012164;28;20222;-26
2023/12/31 04:22:50;;;;;;;2.90;2.70;;;;;;;20.25;51.39;96872.94;5008087;28;20821;-26
2023/12/31 04:25:17;;;;;;;3.37;3.07;;;;;;;20.26;51.48;96873.81;5013852;28;20268;-29
2023/12/31 04:27:44;;;;;;;3.20;2.90;;;;;;;20.25;51.34;96875.50;5013668;28;20665;-26
2023/12/31 04:30:12;;;;;;;3.03;2.83;;;;;;;20.24;51.40;96865.25;5013421;28;20237;-27
2023/12/31 04:32:39;;;;;;;4.17;3.07;;;;;;;20.14;51.27;96848.88;5013602;28;20651;-26
2023/12/31 04:35:06;;;;;;;3.30;3.00;;;;;;;20.23;51.19;96855.88;5006903;28;20258;-26
2023/12/31 04:37:33;;;;;;;3.20;2.90;;;;;;;20.23;51.36;96850.78;5011062;28;20206;-30
2023/12/31 04:40:00;;;;;;;3.30;3.00;;;;;;;20.21;51.47;96838.00;5010771;28;20260;-31
2023/12/31 04:42:26;;;;;;;3.40;3.10;;;;;;;20.20;51.63;96836.28;5013153;28;20630;-26
2023/12/31 04:44:53;;;;;;;3.00;2.80;;;;;;;20.20;50.87;96833.72;5012896;28;20685;-26
2023/12/31 04:47:20;;;;;;;3.23;2.93;;;;;;;20.20;51.23;96833.72;5013281;28;20672;-28
2023/12/31 04:49:47;;;;;;;3.30;3.00;;;;;;;20.19;51.28;96829.44;5013354;28;20280;-27
2023/12/31 04:52:14;;;;;;;2.97;2.77;;;;;;;20.20;51.23;96826.06;5011013;28;20244;-29
2023/12/31 04:54:41;;;;;;;3.03;2.73;;;;;;;20.20;51.17;96820.97;5011795;28;20751;-27
2023/12/31 04:57:08;;;;;;;2.97;2.67;;;;;;;20.22;51.33;96821.00;5013285;28;20199;-28
2023/12/31 04:59:35;;;;;;;3.33;3.03;;;;;;;20.23;51.25;96810.84;5005291;28;20310;-26
2023/12/31 05:02:02;;;;;;;2.83;2.63;;;;;;;20.24;51.11;96815.09;5012932;28;20202;-26
2023/12/31 05:04:28;;;;;;;3.00;2.80;;;;;;;20.24;50.97;96827.88;5004441;28;20249;-33
2023/12/31 05:06:55;;;;;;;3.53;3.23;;;;;;;20.24;51.17;96819.34;5007137;28;20321;-27
2023/12/31 05:09:23;;;;;;;3.30;3.00;;;;;;;20.22;51.03;96814.19;5009336;28;20305;-26
2023/12/31 05:11:50;;;;;;;2.90;2.70;;;;;;;20.21;51.29;96817.59;5012068;28;20198;-26
2023/12/31 05:14:16;;;;;;;2.83;2.63;;;;;;;20.21;51.18;96819.25;5012772;28;20206;-26
2023/12/31 05:16:43;;;;;;;3.23;2.93;;;;;;;20.19;51.20;96814.13;5011029;28;20229;-29
2023/12/31 05:19:09;;;;;;;3.30;3.00;;;;;;;20.20;51.29;96810.78;5011414;28;20218;-26
2023/12/31 05:21:38;;;;;;;3.30;3.00;;;;;;;20.20;51.15;96815.88;5012309;28;20640;-26
2023/12/31 05:24:05;;;;;;;2.77;2.57;;;;;;;20.20;51.24;96815.00;5012852;28;20253;-31
2023/12/31 05:26:32;;;;;;;3.30;3.00;;;;;;;20.19;51.11;96815.84;5012908;28;20228;-30
2023/12/31 05:28:58;;;;;;;3.60;3.20;;;;;;;20.19;51.35;96818.38;5012203;28;20250;-26
2023/12/31 05:31:25;;;;;;;3.17;2.93;;;;;;;20.18;51.24;96817.50;5005811;28;20252;-26
2023/12/31 05:33:52;;;;;;;3.00;2.80;;;;;;;20.18;51.23;96822.63;5011918;28;20724;-28
2023/12/31 05:36:18;;;;;;;3.07;2.87;;;;;;;20.20;51.17;96818.44;5012428;28;20226;-26
2023/12/31 05:38:45;;;;;;;2.93;2.67;;;;;;;20.21;51.23;96814.16;5012444;28;20246;-26
2023/12/31 05:41:11;;;;;;;3.50;3.20;;;;;;;20.22;50.82;96815.91;5012870;28;20211;-26
2023/12/31 05:43:38;;;;;;;2.93;2.73;;;;;;;20.23;50.91;96803.19;5011146;28;20205;-31
2023/12/31 05:46:04;;;;;;;2.83;2.60;;;;;;;20.24;50.92;96802.34;5011975;28;20217;-28
2023/12/31 05:48:31;;;;;;;3.37;3.07;;;;;;;20.23;50.89;96787.88;5011661;28;20803;-26
2023/12/31 05:50:58;;;;;;;3.30;3.00;;;;;;;20.22;50.94;96778.47;5012088;28;20685;-26
2023/12/31 05:53:24;;;;;;;3.10;2.90;;;;;;;20.20;51.06;96775.06;5011170;28;20630;-27
2023/12/31 05:55:51;;;;;;;3.23;2.93;;;;;;;20.20;51.00;96772.50;5010947;28;20696;-28
2023/12/31 05:58:18;;;;;;;3.30;3.00;;;;;;;20.09;51.05;96750.94;5010961;28;20618;-26
2023/12/31 06:00:45;;;;;;;3.17;2.87;;;;;;;20.18;51.12;96769.03;5009678;28;20198;-29
2023/12/31 06:03:11;;;;;;;3.13;2.93;;;;;;;20.19;50.93;96760.56;5012144;28;20285;-26
2023/12/31 06:05:38;;;;;;;4.03;3.33;;;;;;;20.18;51.07;96755.41;5011869;28;20240;-27
2023/12/31 06:08:05;;;;;;;2.83;2.63;;;;;;;20.18;51.12;96755.41;5012549;28;20539;-26
2023/12/31 06:10:32;;;;;;;2.97;2.60;;;;;;;20.18;51.06;96753.75;5011905;28;20293;-30
2023/12/31 06:12:58;;;;;;;2.97;2.77;;;;;;;20.18;50.98;96753.75;5012048;28;20285;-26
2023/12/31 06:15:25;;;;;;;3.37;3.07;;;;;;;20.19;50.97;96759.72;5010220;28;20218;-26
2023/12/31 06:17:51;;;;;;;2.90;2.60;;;;;;;20.20;50.98;96748.66;5012075;28;20293;-28
2023/12/31 06:20:18;;;;;;;2.87;2.67;;;;;;;20.21;51.12;96742.72;5012027;28;20226;-26
2023/12/31 06:22:45;;;;;;;2.97;2.77;;;;;;;20.21;51.02;96738.50;5011596;28;20265;-27
2023/12/31 06:25:11;;;;;;;2.90;2.70;;;;;;;20.22;50.67;96732.56;5010767;28;20739;-26
2023/12/31 06:27:39;;;;;;;2.67;2.47;;;;;;;20.22;50.76;96735.09;5011511;28;20209;-33
2023/12/31 06:30:06;;;;;;;2.90;2.70;;;;;;;20.22;50.92;96737.66;5011965;28;20229;-35
2023/12/31 06:32:33;;;;;;;2.80;2.60;;;;;;;20.21;50.93;96738.50;5011703;28;20214;-26
2023/12/31 06:35:01;;;;;;;2.90;2.70;;;;;;;20.20;50.84;96749.53;5010958;28;20202;-28
2023/12/31 06:37:28;;;;;;;2.90;2.70;;;;;;;20.19;51.03;96747.78;5011844;28;20198;-34
2023/12/31 06:39:54;;;;;;;3.10;2.73;;;;;;;20.19;50.97;96747.78;5010879;28;20262;-28
2023/12/31 06:42:21;;;;;;;3.20;2.90;;;;;;;20.18;50.76;96746.09;5006164;28;20218;-27
2023/12/31 06:44:48;;;;;;;3.60;3.07;;;;;;;20.18;50.79;96738.44;5011806;28;20203;-26
2023/12/31 06:47:16;;;;;;;2.70;2.50;;;;;;;20.18;50.77;96737.56;5011689;28;20194;-31
2023/12/31 06:49:43;;;;;;;2.70;2.50;;;;;;;20.18;50.89;96735.00;5012326;28;20233;-27
2023/12/31 06:52:10;;;;;;;2.80;2.60;;;;;;;20.16;50.84;96734.97;5011481;28;20202;-28
2023/12/31 06:54:37;;;;;;;3.30;3.00;;;;;;;20.17;50.92;96736.72;5007344;28;20199;-27
2023/12/31 06:57:03;;;;;;;2.97;2.77;;;;;;;20.18;50.90;96735.00;5011115;28;20222;-29
2023/12/31 06:59:34;;;;;;;2.90;2.70;;;;;;;20.19;50.66;96729.94;5004935;28;20594;-26
2023/12/31 07:02:01;;;;;;;2.97;2.77;;;;;;;20.20;50.91;96736.78;5010885;28;20717;-26
2023/12/31 07:04:28;;;;;;;2.90;2.70;;;;;;;20.21;50.77;96738.50;5012551;28;20676;-26
2023/12/31 07:06:54;;;;;;;2.63;2.43;;;;;;;20.23;50.59;96743.63;5013869;28;20274;-26
2023/12/31 07:09:21;;;;;;;2.67;2.47;;;;;;;20.21;50.68;96741.06;5014560;28;20230;-31
2023/12/31 07:11:48;;;;;;;2.83;2.63;;;;;;;20.21;50.68;96733.41;5014710;28;20199;-27
2023/12/31 07:14:14;;;;;;;3.20;3.00;;;;;;;20.19;51.08;96712.09;5015542;28;20238;-26
2023/12/31 07:16:41;;;;;;;2.63;2.43;;;;;;;20.20;50.74;96707.84;5013739;28;20218;-26
2023/12/31 07:19:08;;;;;;;2.93;2.73;;;;;;;20.18;50.68;96699.28;5010178;28;20222;-27
2023/12/31 07:21:34;;;;;;;3.10;2.90;;;;;;;20.17;50.57;96687.38;5014537;28;20286;-27
2023/12/31 07:24:01;;;;;;;2.80;2.60;;;;;;;20.18;50.80;96691.63;5013680;28;20202;-26
2023/12/31 07:26:28;;;;;;;3.00;2.80;;;;;;;20.17;50.92;96692.47;5014514;28;20199;-26
2023/12/31 07:28:54;;;;;;;2.80;2.60;;;;;;;20.17;50.81;96692.47;5012276;28;20230;-31
2023/12/31 07:31:36;;;;;;;2.60;2.40;;;;;;;20.16;50.70;96703.53;5011911;28;20198;-26
2023/12/31 07:34:03;;;;;;;2.90;2.70;;;;;;;20.16;50.75;96701.81;5013867;28;20211;-26
2023/12/31 07:36:30;;;;;;;2.47;2.27;;;;;;;20.16;50.82;96695.88;5006607;28;20214;-28
2023/12/31 07:38:57;;;;;;;2.87;2.67;;;;;;;20.16;50.69;96699.25;5013088;28;20218;-27
2023/12/31 07:41:24;;;;;;;2.70;2.50;;;;;;;20.18;50.73;96695.06;5014012;28;20640;-26
2023/12/31 07:43:50;;;;;;;2.90;2.60;;;;;;;20.19;50.92;96684.03;5011368;28;20679;-26
2023/12/31 07:46:17;;;;;;;3.67;2.70;;;;;;;20.19;50.63;96684.03;5014538;28;20293;-28
2023/12/31 07:48:46;;;;;;;2.97;2.77;;;;;;;20.20;50.68;96679.78;5014347;28;20214;-32
2023/12/31 07:51:13;;;;;;;2.70;2.50;;;;;;;20.19;50.72;96686.56;5011079;28;20198;-26
2023/12/31 07:53:40;;;;;;;2.60;2.40;;;;;;;20.17;50.78;96680.59;5013812;28;20206;-28
2023/12/31 07:56:06;;;;;;;2.70;2.50;;;;;;;20.17;50.46;96688.25;5013828;28;20225;-26
2023/12/31 07:58:34;;;;;;;2.83;2.63;;;;;;;20.16;50.79;96686.50;5013865;28;20233;-27
2023/12/31 08:01:04;;;;;;;3.17;2.93;;;;;;;20.16;50.61;96685.66;5009766;28;20628;-31
2023/12/31 08:03:31;;;;;;;2.90;2.70;;;;;;;20.18;50.44;96684.84;5006644;28;20202;-26
2023/12/31 08:05:58;;;;;;;2.67;2.47;;;;;;;20.17;50.22;96680.59;5010413;28;20202;-27
2023/12/31 08:08:25;;;;;;;4.60;2.47;;;;;;;20.16;50.52;96683.97;5007227;28;20814;-29
2023/12/31 08:10:52;;;;;;;2.90;2.67;;;;;;;20.17;50.60;96672.94;5007609;28;20214;-26
2023/12/31 08:13:18;;;;;;;3.00;2.80;;;;;;;20.18;50.33;96658.47;5011762;28;20226;-26
2023/12/31 08:15:45;;;;;;;2.70;2.50;;;;;;;20.19;50.48;96662.78;5013539;28;20228;-26
2023/12/31 08:18:12;;;;;;;3.10;2.50;;;;;;;20.20;50.52;96672.13;5013593;28;20610;-26
2023/12/31 08:20:39;;;;;;;2.70;2.50;;;;;;;20.19;50.38;96655.97;5006059;28;20240;-27
2023/12/31 08:23:06;;;;;;;3.03;2.83;;;;;;;20.20;50.29;96667.03;5008839;28;20250;-28
2023/12/31 08:25:33;;;;;;;2.97;2.77;;;;;;;20.20;50.38;96673.00;5012943;28;20293;-26
2023/12/31 08:28:00;;;;;;;2.70;2.50;;;;;;;20.18;50.59;96671.22;5013859;28;20206;-28
2023/12/31 08:30:26;;;;;;;3.10;2.80;;;;;;;20.07;50.62;96649.72;5013062;28;20233;-26
2023/12/31 08:32:53;;;;;;;2.83;2.63;;;;;;;20.17;50.53;96664.41;5013307;28;20214;-29
2023/12/31 08:35:22;;;;;;;2.67;2.47;;;;;;;20.15;50.44;96669.50;5012610;28;20210;-34
2023/12/31 08:37:49;;;;;;;2.60;2.40;;;;;;;20.16;50.58;96673.75;5012105;28;20218;-26
2023/12/31 08:40:15;;;;;;;2.90;2.70;;;;;;;20.16;50.71;96670.38;5007453;28;20755;-27
2023/12/31 08:42:42;;;;;;;2.70;2.50;;;;;;;20.16;50.56;96681.41;5012203;28;20194;-26
2023/12/31 08:45:10;;;;;;;2.60;2.40;;;;;;;20.16;50.52;96670.38;5013796;28;20214;-26
2023/12/31 08:47:40;;;;;;;2.77;2.57;;;;;;;20.17;50.50;96678.03;5011901;28;20201;-29
2023/12/31 08:50:09;;;;;;;2.97;2.67;;;;;;;20.19;50.61;96680.63;5004343;28;20225;-26
2023/12/31 08:52:38;;;;;;;2.87;2.60;;;;;;;20.20;50.54;96680.66;5013461;28;20249;-26
2023/12/31 08:55:06;;;;;;;2.93;2.70;;;;;;;20.20;50.25;96683.22;5006927;28;20226;-29
2023/12/31 08:57:33;;;;;;;2.80;2.60;;;;;;;20.19;50.13;96689.13;5007053;28;20222;-26
2023/12/31 09:00:00;;;;;;;3.00;2.80;;;;;;;20.19;49.84;96683.19;5004924;28;20218;-37
2023/12/31 09:02:27;;;;;;;2.70;2.50;;;;;;;20.18;50.18;96676.34;5003216;28;20212;-27
2023/12/31 09:04:54;;;;;;;3.10;2.60;;;;;;;20.17;50.08;96680.59;5012065;28;20260;-27
2023/12/31 09:07:20;;;;;;;2.73;2.53;;;;;;;20.17;50.10;96685.69;5013095;28;20249;-36
2023/12/31 09:09:47;;;;;;;3.10;2.90;;;;;;;20.16;50.45;96698.41;5010393;28;20596;-28
2023/12/31 09:12:14;;;;;;;3.00;2.80;;;;;;;20.14;50.08;96697.50;5009677;28;20211;-26
2023/12/31 09:14:40;;;;;;;3.13;2.93;;;;;;;20.16;48.84;96695.88;5010161;28;20259;-29
2023/12/31 09:17:07;;;;;;;3.73;3.30;;;;;;;20.15;48.77;96689.03;5006050;28;20210;-28
2023/12/31 09:19:34;;;;;;;3.40;3.10;;;;;;;20.14;48.31;96695.84;5011725;28;20217;-28
2023/12/31 09:22:02;;;;;;;4.37;3.40;;;;;;;20.15;48.29;96694.13;5009134;28;20202;-28
2023/12/31 09:24:31;;;;;;;3.57;3.27;;;;;;;20.15;48.11;96694.13;5012466;28;20673;-29
2023/12/31 09:26:57;;;;;;;3.80;3.50;;;;;;;20.15;47.34;96691.56;5010798;28;20237;-27
2023/12/31 09:29:24;;;;;;;4.50;4.10;;;;;;;20.11;45.69;96685.53;5011119;28;20229;-30
2023/12/31 09:31:50;;;;;;;4.27;3.87;;;;;;;20.12;45.62;96694.03;5011022;28;20654;-26
2023/12/31 09:34:17;;;;;;;4.87;4.47;;;;;;;20.10;43.64;96688.88;5010057;28;20245;-26
2023/12/31 09:36:45;;;;;;;5.10;4.67;;;;;;;20.08;42.13;96698.22;5010922;28;20245;-27
2023/12/31 09:39:13;;;;;;;5.20;4.70;;;;;;;20.07;41.94;96688.00;5006430;28;20226;-26
2023/12/31 09:41:39;;;;;;;5.13;4.67;;;;;;;20.09;41.99;96699.06;5011818;28;20225;-28
2023/12/31 09:44:06;;;;;;;5.47;4.97;;;;;;;20.06;41.37;96697.31;5009781;28;20256;-27
2023/12/31 09:46:37;;;;;;;5.97;4.80;;;;;;;20.08;41.29;96687.16;4993527;28;20654;-26
2023/12/31 09:49:03;;;;;;;5.37;4.90;;;;;;;20.07;41.07;96688.81;5011507;28;20222;-26
2023/12/31 09:51:30;;;;;;;12.47;5.57;;;;;;;20.01;40.49;96687.84;5009207;28;20198;-26
2023/12/31 09:53:56;;;;;;;5.37;4.87;;;;;;;19.98;39.22;96692.03;5008704;28;20280;-26
2023/12/31 09:56:23;;;;;;;5.50;5.00;;;;;;;19.96;39.45;96678.41;5003694;28;20693;-27
2023/12/31 09:58:53;;;;;;;6.63;5.10;;;;;;;19.94;39.17;96677.53;5010785;28;20596;-26
2023/12/31 10:01:31;;;;;;;5.47;4.97;;;;;;;19.93;39.00;96672.38;5008950;28;20218;-27
2023/12/31 10:03:57;;;;;;;5.20;4.70;;;;;;;19.99;39.01;96672.53;5009015;28;20198;-26
2023/12/31 10:06:24;;;;;;;7.20;5.00;;;;;;;19.99;38.74;96662.31;5002238;28;20624;-26
2023/12/31 10:08:50;;;;;;;5.27;4.77;;;;;;;19.99;38.35;96665.72;5009372;28;20261;-26
2023/12/31 10:11:17;;;;;;;5.90;5.30;;;;;;;19.99;38.42;96664.88;4994453;28;21708;-30
2023/12/31 10:13:43;;;;;;;5.73;5.03;;;;;;;20.00;38.29;96664.03;5011447;28;20233;-27
2023/12/31 10:16:12;;;;;;;5.17;4.73;;;;;;;19.98;38.09;96658.03;5006955;28;20210;-26
2023/12/31 10:18:39;;;;;;;5.73;5.23;;;;;;;19.98;38.00;96654.63;5011128;28;20222;-29
2023/12/31 10:21:08;;;;;;;5.77;5.27;;;;;;;19.98;38.35;96650.38;5011011;28;20202;-28
2023/12/31 10:23:35;;;;;;;6.07;5.47;;;;;;;19.92;38.83;96647.69;5007681;28;20264;-26
2023/12/31 10:26:02;;;;;;;5.73;5.13;;;;;;;19.60;38.62;96613.84;5003139;28;20198;-29
2023/12/31 10:28:29;;;;;;;5.30;4.80;;;;;;;19.71;38.49;96637.91;5009677;28;20572;-26
2023/12/31 10:30:56;;;;;;;6.50;4.93;;;;;;;19.80;38.26;96649.97;5007900;28;20615;-28
2023/12/31 10:33:27;;;;;;;5.37;4.90;;;;;;;19.77;38.41;96666.06;5009599;28;20202;-26
2023/12/31 10:36:06;;;;;;;5.30;4.80;;;;;;;19.80;38.25;96698.41;5008454;28;20213;-32
2023/12/31 10:38:43;;;;;;;5.67;5.13;;;;;;;19.69;38.73;96712.63;5013934;28;20221;-26
2023/12/31 10:41:14;;;;;;;5.80;5.00;;;;;;;19.72;39.41;96707.59;5013116;28;20289;-31
2023/12/31 10:43:40;;;;;;;7.00;4.70;;;;;;;19.73;40.00;96730.56;5013713;28;20198;-26
2023/12/31 10:46:07;;;;;;;5.27;4.77;;;;;;;19.73;40.74;96711.84;4998943;28;20222;-28
2023/12/31 10:48:34;;;;;;;6.20;4.70;;;;;;;19.69;41.33;96723.66;5013746;28;20551;-26
2023/12/31 10:51:02;;;;;;;5.00;4.50;;;;;;;19.73;41.66;96719.50;5008517;28;20669;-26
2023/12/31 10:53:28;;;;;;;5.00;4.30;;;;;;;19.73;41.89;96696.56;5008419;28;20198;-26
2023/12/31 10:55:55;;;;;;;4.87;4.33;;;;;;;19.73;42.53;96681.25;4996544;28;20229;-28
2023/12/31 10:58:21;;;;;;;4.57;4.03;;;;;;;19.69;42.99;96662.47;5012912;28;20609;-26
2023/12/31 11:00:48;;;;;;;4.60;4.20;;;;;;;19.76;43.17;96660.94;4997353;28;20281;-26
2023/12/31 11:03:15;;;;;;;5.03;4.47;;;;;;;19.76;43.45;96625.25;5009915;28;20202;-26
2023/12/31 11:05:41;;;;;;;4.00;3.70;;;;;;;19.77;43.54;96612.53;4997732;28;20606;-29
2023/12/31 11:08:08;;;;;;;4.37;3.97;;;;;;;19.81;43.49;96593.91;4991282;28;20308;-26
2023/12/31 11:10:35;;;;;;;3.90;3.60;;;;;;;19.82;43.75;96566.75;5030119;28;20569;-26
2023/12/31 11:13:01;;;;;;;4.33;3.93;;;;;;;19.83;43.71;96565.91;5007388;28;20199;-26
2023/12/31 11:15:28;;;;;;;4.20;3.80;;;;;;;19.84;43.79;96557.44;5013791;28;20222;-29
2023/12/31 11:18:26;;;;;;;4.90;3.90;;;;;;;19.84;44.30;96557.44;5013720;28;20226;-27
2023/12/31 11:21:23;;;;;;;3.97;3.57;;;;;;;19.73;44.54;96529.19;5008610;28;20281;-26
2023/12/31 11:24:00;;;;;;;3.83;3.53;;;;;;;19.85;44.61;96546.41;5007286;28;20218;-26
2023/12/31 11:26:28;;;;;;;4.30;3.90;;;;;;;19.85;44.82;96533.66;5010984;28;20214;-31
2023/12/31 11:28:55;;;;;;;4.17;3.77;;;;;;;19.85;44.96;96526.88;5007759;28;20253;-27
2023/12/31 11:31:21;;;;;;;4.03;3.67;;;;;;;19.86;45.47;96526.03;5014417;28;20195;-26
2023/12/31 11:33:48;;;;;;;3.90;3.57;;;;;;;19.87;45.51;96521.81;5005162;28;20231;-26